Date,TemperatureHighF,TemperatureAvgF,TemperatureLowF,DewpointHighF,DewpointAvgF,DewpointLowF,HumidityHigh,HumidityAvg,HumidityLow,PressureMaxIn,PressureMinIn,WindSpeedMaxMPH,WindSpeedAvgMPH,GustSpeedMaxMPH,PrecipitationSumIn
2013-9-1,99,85,72,66,62,57,73,50,29,29.81,29.67,10,2,27,0.00
2013-9-2,98,84,76,66,61,56,62,48,25,29.83,29.66,15,2,21,0.00
2013-9-3,100,85,75,62,59,50,62,43,19,29.80,29.72,11,2,16,0.00
2013-9-4,102,88,74,60,52,45,58,33,16,29.83,29.71,14,2,15,0.00
2013-9-5,103,90,77,55,49,45,39,25,15,29.80,29.69,14,3,17,0.00
2013-9-6,99,82,73,69,58,51,75,46,22,29.84,29.69,17,2,17,0.11
2013-9-7,89,78,68,66,62,56,87,61,34,29.88,29.75,10,2,12,0.01
2013-9-8,83,75,69,69,66,62,89,74,54,29.79,29.67,9,2,13,0.06
2013-9-9,83,74,68,69,65,62,94,77,52,29.77,29.64,8,1,12,0.18
2013-9-10,86,76,62,66,60,56,96,61,39,29.82,29.70,12,2,17,0.05
2013-9-11,88,76,62,62,57,52,89,56,30,29.90,29.79,7,2,12,0.00
2013-9-12,93,81,67,60,54,49,69,41,26,29.81,29.64,10,2,17,0.00
2013-9-13,96,82,69,63,58,52,73,47,28,29.69,29.51,10,2,12,0.00
2013-9-14,99,85,71,63,56,45,68,40,17,29.61,29.52,13,3,15,0.00
2013-9-15,101,85,73,61,55,48,60,38,20,29.67,29.58,10,3,16,0.00
2013-9-16,101,87,76,59,56,53,50,36,23,29.70,29.59,12,2,17,0.00
2013-9-17,101,88,73,59,55,45,57,35,19,29.67,29.52,11,2,15,0.00
2013-9-18,99,84,69,48,42,32,40,24,12,29.66,29.52,14,2,16,0.00
2013-9-19,99,83,66,50,44,38,41,26,16,29.67,29.57,13,2,15,0.00
2013-9-20,100,86,67,55,48,38,47,28,16,29.72,29.61,18,2,18,0.00
2013-9-21,97,82,70,58,54,50,59,40,22,29.73,29.55,15,2,18,0.00
2013-9-22,89,76,60,69,54,39,84,47,25,29.68,29.50,21,3,24,0.37
2013-9-23,89,69,52,43,36,30,59,32,17,29.85,29.68,7,2,10,0.00
2013-9-24,95,77,59,42,37,29,41,26,10,29.89,29.72,12,2,16,0.00
2013-9-25,94,75,60,41,30,20,41,22,9,29.75,29.57,17,3,21,0.00
2013-9-26,91,79,66,56,38,23,58,25,16,29.65,29.53,21,6,26,0.00
2013-9-27,80,69,60,56,38,21,60,35,17,29.89,29.64,12,3,15,0.00
2013-9-28,86,72,56,43,32,22,29,23,18,30.00,29.88,10,3,12,0.00
2013-9-29,90,74,55,41,36,30,43,26,17,30.00,29.86,10,1,14,0.00
2013-9-30,90,74,59,40,32,22,40,23,10,29.90,29.77,10,2,21,0.00